sensor_id;sensor_type;location;lat;lon;timestamp;P1;durP1;ratioP1;P2;durP2;ratioP2
10090;SDS011;5084;51.386;6.778;2022-11-20T00:01:12;12.40;;;9.03;;
10090;SDS011;5084;51.386;6.778;2022-11-20T00:03:38;9.53;;;8.53;;
10090;SDS011;5084;51.386;6.778;2022-11-20T00:06:06;9.57;;;8.20;;
10090;SDS011;5084;51.386;6.778;2022-11-20T00:08:34;12.50;;;8.53;;
10090;SDS011;5084;51.386;6.778;2022-11-20T00:13:30;10.20;;;8.83;;
10090;SDS011;5084;51.386;6.778;2022-11-20T00:15:56;10.07;;;8.50;;
10090;SDS011;5084;51.386;6.778;2022-11-20T00:18:23;10.63;;;8.27;;
10090;SDS011;5084;51.386;6.778;2022-11-20T00:20:50;9.73;;;7.97;;
10090;SDS011;5084;51.386;6.778;2022-11-20T00:23:22;9.90;;;8.60;;
10090;SDS011;5084;51.386;6.778;2022-11-20T00:25:48;11.70;;;9.10;;
10090;SDS011;5084;51.386;6.778;2022-11-20T00:28:14;12.37;;;9.50;;
10090;SDS011;5084;51.386;6.778;2022-11-20T00:30:40;9.87;;;8.43;;
10090;SDS011;5084;51.386;6.778;2022-11-20T00:33:07;11.53;;;9.33;;
10090;SDS011;5084;51.386;6.778;2022-11-20T00:35:33;9.90;;;8.37;;
10090;SDS011;5084;51.386;6.778;2022-11-20T00:37:59;11.57;;;10.03;;
10090;SDS011;5084;51.386;6.778;2022-11-20T00:40:25;10.57;;;9.27;;
10090;SDS011;5084;51.386;6.778;2022-11-20T00:42:51;12.30;;;9.50;;
10090;SDS011;5084;51.386;6.778;2022-11-20T00:45:17;10.77;;;9.00;;
10090;SDS011;5084;51.386;6.778;2022-11-20T00:47:43;10.10;;;8.97;;
10090;SDS011;5084;51.386;6.778;2022-11-20T00:50:16;11.53;;;8.80;;
10090;SDS011;5084;51.386;6.778;2022-11-20T00:52:42;11.27;;;9.70;;
10090;SDS011;5084;51.386;6.778;2022-11-20T00:55:08;10.00;;;8.70;;
10090;SDS011;5084;51.386;6.778;2022-11-20T00:57:34;10.67;;;8.87;;
10090;SDS011;5084;51.386;6.778;2022-11-20T01:00:00;10.67;;;9.00;;
10090;SDS011;5084;51.386;6.778;2022-11-20T01:02:26;13.10;;;9.47;;
10090;SDS011;5084;51.386;6.778;2022-11-20T01:04:52;11.70;;;9.43;;
10090;SDS011;5084;51.386;6.778;2022-11-20T01:07:18;12.57;;;9.70;;
10090;SDS011;5084;51.386;6.778;2022-11-20T01:09:44;9.80;;;8.80;;
10090;SDS011;5084;51.386;6.778;2022-11-20T01:12:10;12.17;;;10.03;;
10090;SDS011;5084;51.386;6.778;2022-11-20T01:14:36;12.33;;;9.97;;
10090;SDS011;5084;51.386;6.778;2022-11-20T01:17:02;12.50;;;8.37;;
10090;SDS011;5084;51.386;6.778;2022-11-20T01:19:29;10.90;;;8.97;;
10090;SDS011;5084;51.386;6.778;2022-11-20T01:21:55;13.23;;;10.20;;
10090;SDS011;5084;51.386;6.778;2022-11-20T01:24:21;12.37;;;9.47;;
10090;SDS011;5084;51.386;6.778;2022-11-20T01:26:48;12.50;;;10.00;;
10090;SDS011;5084;51.386;6.778;2022-11-20T01:29:17;11.20;;;9.93;;
10090;SDS011;5084;51.386;6.778;2022-11-20T01:31:43;10.50;;;9.40;;
10090;SDS011;5084;51.386;6.778;2022-11-20T01:34:11;12.57;;;9.73;;
10090;SDS011;5084;51.386;6.778;2022-11-20T01:36:37;16.70;;;10.43;;
10090;SDS011;5084;51.386;6.778;2022-11-20T01:39:13;11.83;;;10.03;;
10090;SDS011;5084;51.386;6.778;2022-11-20T01:41:40;10.70;;;9.13;;
10090;SDS011;5084;51.386;6.778;2022-11-20T01:47:10;10.33;;;9.23;;
10090;SDS011;5084;51.386;6.778;2022-11-20T01:49:38;10.83;;;9.50;;
10090;SDS011;5084;51.386;6.778;2022-11-20T01:54:39;10.07;;;8.93;;
10090;SDS011;5084;51.386;6.778;2022-11-20T01:57:07;12.20;;;9.53;;
10090;SDS011;5084;51.386;6.778;2022-11-20T01:59:41;11.20;;;9.20;;
10090;SDS011;5084;51.386;6.778;2022-11-20T02:02:09;11.07;;;9.30;;
10090;SDS011;5084;51.386;6.778;2022-11-20T02:04:35;11.50;;;8.90;;
10090;SDS011;5084;51.386;6.778;2022-11-20T02:07:03;11.63;;;9.43;;
10090;SDS011;5084;51.386;6.778;2022-11-20T02:09:32;13.50;;;9.63;;
10090;SDS011;5084;51.386;6.778;2022-11-20T02:11:58;10.93;;;9.00;;
10090;SDS011;5084;51.386;6.778;2022-11-20T02:14:24;10.40;;;8.93;;
10090;SDS011;5084;51.386;6.778;2022-11-20T02:16:51;10.37;;;9.20;;
10090;SDS011;5084;51.386;6.778;2022-11-20T02:21:47;11.23;;;9.33;;
10090;SDS011;5084;51.386;6.778;2022-11-20T02:24:15;12.47;;;9.47;;
10090;SDS011;5084;51.386;6.778;2022-11-20T02:29:16;10.67;;;9.43;;
10090;SDS011;5084;51.386;6.778;2022-11-20T02:31:44;11.53;;;9.67;;
10090;SDS011;5084;51.386;6.778;2022-11-20T02:34:10;11.57;;;9.83;;
10090;SDS011;5084;51.386;6.778;2022-11-20T02:36:36;12.73;;;10.03;;
10090;SDS011;5084;51.386;6.778;2022-11-20T02:39:04;11.07;;;9.37;;
10090;SDS011;5084;51.386;6.778;2022-11-20T02:41:31;11.67;;;9.17;;
10090;SDS011;5084;51.386;6.778;2022-11-20T02:43:57;10.77;;;9.63;;
10090;SDS011;5084;51.386;6.778;2022-11-20T02:46:23;12.73;;;10.57;;
10090;SDS011;5084;51.386;6.778;2022-11-20T02:48:49;13.67;;;9.53;;
10090;SDS011;5084;51.386;6.778;2022-11-20T02:51:15;12.10;;;9.93;;
10090;SDS011;5084;51.386;6.778;2022-11-20T02:53:41;13.50;;;9.67;;
10090;SDS011;5084;51.386;6.778;2022-11-20T02:56:07;12.00;;;10.27;;
10090;SDS011;5084;51.386;6.778;2022-11-20T02:58:33;11.40;;;9.20;;
10090;SDS011;5084;51.386;6.778;2022-11-20T03:00:59;11.67;;;10.47;;
10090;SDS011;5084;51.386;6.778;2022-11-20T03:03:25;12.17;;;9.97;;
10090;SDS011;5084;51.386;6.778;2022-11-20T03:05:51;12.07;;;9.77;;
10090;SDS011;5084;51.386;6.778;2022-11-20T03:08:17;11.67;;;9.37;;
10090;SDS011;5084;51.386;6.778;2022-11-20T03:10:43;11.10;;;9.47;;
10090;SDS011;5084;51.386;6.778;2022-11-20T03:13:09;11.97;;;9.60;;
10090;SDS011;5084;51.386;6.778;2022-11-20T03:15:36;11.07;;;9.33;;
10090;SDS011;5084;51.386;6.778;2022-11-20T03:18:02;13.73;;;9.80;;
10090;SDS011;5084;51.386;6.778;2022-11-20T03:20:28;13.17;;;10.10;;
10090;SDS011;5084;51.386;6.778;2022-11-20T03:22:54;11.40;;;9.40;;
10090;SDS011;5084;51.386;6.778;2022-11-20T03:25:21;11.90;;;9.47;;
10090;SDS011;5084;51.386;6.778;2022-11-20T03:27:47;12.13;;;9.90;;
10090;SDS011;5084;51.386;6.778;2022-11-20T03:30:13;11.93;;;9.77;;
10090;SDS011;5084;51.386;6.778;2022-11-20T03:32:40;11.20;;;9.33;;
10090;SDS011;5084;51.386;6.778;2022-11-20T03:35:06;13.20;;;10.47;;
10090;SDS011;5084;51.386;6.778;2022-11-20T03:37:32;13.20;;;10.10;;
10090;SDS011;5084;51.386;6.778;2022-11-20T03:39:58;12.73;;;10.00;;
10090;SDS011;5084;51.386;6.778;2022-11-20T03:42:24;12.23;;;9.77;;
10090;SDS011;5084;51.386;6.778;2022-11-20T03:45:08;12.40;;;9.57;;
10090;SDS011;5084;51.386;6.778;2022-11-20T03:47:34;11.47;;;9.50;;
10090;SDS011;5084;51.386;6.778;2022-11-20T03:50:07;11.57;;;9.97;;
10090;SDS011;5084;51.386;6.778;2022-11-20T03:52:34;12.10;;;9.77;;
10090;SDS011;5084;51.386;6.778;2022-11-20T03:55:00;12.00;;;9.93;;
10090;SDS011;5084;51.386;6.778;2022-11-20T03:57:26;14.43;;;10.67;;
10090;SDS011;5084;51.386;6.778;2022-11-20T03:59:52;11.40;;;10.20;;
10090;SDS011;5084;51.386;6.778;2022-11-20T04:02:18;11.50;;;9.70;;
10090;SDS011;5084;51.386;6.778;2022-11-20T04:04:44;13.93;;;9.80;;
10090;SDS011;5084;51.386;6.778;2022-11-20T04:07:10;12.17;;;9.67;;
10090;SDS011;5084;51.386;6.778;2022-11-20T04:09:36;11.93;;;9.80;;
10090;SDS011;5084;51.386;6.778;2022-11-20T04:12:02;11.23;;;10.00;;
10090;SDS011;5084;51.386;6.778;2022-11-20T04:14:28;10.27;;;8.77;;
10090;SDS011;5084;51.386;6.778;2022-11-20T04:16:54;14.67;;;13.30;;
10090;SDS011;5084;51.386;6.778;2022-11-20T04:19:20;13.80;;;10.67;;
10090;SDS011;5084;51.386;6.778;2022-11-20T04:21:46;11.63;;;10.43;;
10090;SDS011;5084;51.386;6.778;2022-11-20T04:24:12;12.70;;;9.87;;
10090;SDS011;5084;51.386;6.778;2022-11-20T04:26:38;11.13;;;9.93;;
10090;SDS011;5084;51.386;6.778;2022-11-20T04:29:04;12.30;;;10.33;;
10090;SDS011;5084;51.386;6.778;2022-11-20T04:31:31;12.07;;;10.87;;
10090;SDS011;5084;51.386;6.778;2022-11-20T04:34:04;12.20;;;10.03;;
10090;SDS011;5084;51.386;6.778;2022-11-20T04:36:31;16.30;;;10.00;;
10090;SDS011;5084;51.386;6.778;2022-11-20T04:39:04;11.20;;;8.73;;
10090;SDS011;5084;51.386;6.778;2022-11-20T04:41:32;14.13;;;10.30;;
10090;SDS011;5084;51.386;6.778;2022-11-20T04:44:00;12.00;;;9.83;;
10090;SDS011;5084;51.386;6.778;2022-11-20T04:46:30;12.57;;;10.03;;
10090;SDS011;5084;51.386;6.778;2022-11-20T04:48:56;11.80;;;10.60;;
10090;SDS011;5084;51.386;6.778;2022-11-20T04:51:23;11.43;;;10.10;;
10090;SDS011;5084;51.386;6.778;2022-11-20T04:53:49;13.33;;;9.67;;
10090;SDS011;5084;51.386;6.778;2022-11-20T04:56:15;12.13;;;9.90;;
10090;SDS011;5084;51.386;6.778;2022-11-20T04:58:41;12.13;;;10.07;;
10090;SDS011;5084;51.386;6.778;2022-11-20T05:01:10;13.07;;;9.87;;
10090;SDS011;5084;51.386;6.778;2022-11-20T05:03:37;12.13;;;9.70;;
10090;SDS011;5084;51.386;6.778;2022-11-20T05:06:03;11.07;;;9.97;;
10090;SDS011;5084;51.386;6.778;2022-11-20T05:08:30;12.83;;;10.07;;
10090;SDS011;5084;51.386;6.778;2022-11-20T05:11:07;14.20;;;10.40;;
10090;SDS011;5084;51.386;6.778;2022-11-20T05:13:33;14.80;;;11.50;;
10090;SDS011;5084;51.386;6.778;2022-11-20T05:16:04;11.80;;;10.57;;
10090;SDS011;5084;51.386;6.778;2022-11-20T05:18:30;13.23;;;10.77;;
10090;SDS011;5084;51.386;6.778;2022-11-20T05:20:56;12.57;;;11.23;;
10090;SDS011;5084;51.386;6.778;2022-11-20T05:23:23;17.47;;;12.20;;
10090;SDS011;5084;51.386;6.778;2022-11-20T05:25:53;13.93;;;10.50;;
10090;SDS011;5084;51.386;6.778;2022-11-20T05:28:20;12.73;;;10.57;;
10090;SDS011;5084;51.386;6.778;2022-11-20T05:30:46;14.90;;;10.83;;
10090;SDS011;5084;51.386;6.778;2022-11-20T05:33:12;12.97;;;11.40;;
10090;SDS011;5084;51.386;6.778;2022-11-20T05:35:38;14.17;;;11.30;;
10090;SDS011;5084;51.386;6.778;2022-11-20T05:38:04;13.10;;;11.67;;
10090;SDS011;5084;51.386;6.778;2022-11-20T05:40:30;13.73;;;11.33;;
10090;SDS011;5084;51.386;6.778;2022-11-20T05:42:56;12.93;;;11.30;;
10090;SDS011;5084;51.386;6.778;2022-11-20T05:45:22;12.97;;;10.83;;
10090;SDS011;5084;51.386;6.778;2022-11-20T05:47:48;14.27;;;11.47;;
10090;SDS011;5084;51.386;6.778;2022-11-20T05:50:14;14.27;;;11.47;;
10090;SDS011;5084;51.386;6.778;2022-11-20T05:52:40;15.30;;;11.80;;
10090;SDS011;5084;51.386;6.778;2022-11-20T05:55:06;13.57;;;11.10;;
10090;SDS011;5084;51.386;6.778;2022-11-20T05:57:33;14.57;;;10.97;;
10090;SDS011;5084;51.386;6.778;2022-11-20T05:59:59;12.53;;;10.60;;
10090;SDS011;5084;51.386;6.778;2022-11-20T06:02:25;13.70;;;11.43;;
10090;SDS011;5084;51.386;6.778;2022-11-20T06:04:51;16.03;;;10.93;;
10090;SDS011;5084;51.386;6.778;2022-11-20T06:07:17;14.63;;;11.10;;
10090;SDS011;5084;51.386;6.778;2022-11-20T06:09:43;13.23;;;10.77;;
10090;SDS011;5084;51.386;6.778;2022-11-20T06:12:09;12.97;;;11.10;;
10090;SDS011;5084;51.386;6.778;2022-11-20T06:14:35;16.77;;;12.00;;
10090;SDS011;5084;51.386;6.778;2022-11-20T06:17:01;14.07;;;10.97;;
10090;SDS011;5084;51.386;6.778;2022-11-20T06:19:27;15.47;;;11.83;;
10090;SDS011;5084;51.386;6.778;2022-11-20T06:21:53;14.90;;;11.67;;
10090;SDS011;5084;51.386;6.778;2022-11-20T06:24:19;13.03;;;11.37;;
10090;SDS011;5084;51.386;6.778;2022-11-20T06:26:45;14.93;;;12.00;;
10090;SDS011;5084;51.386;6.778;2022-11-20T06:29:11;16.43;;;12.03;;
10090;SDS011;5084;51.386;6.778;2022-11-20T06:31:37;14.00;;;10.57;;
10090;SDS011;5084;51.386;6.778;2022-11-20T06:34:04;12.80;;;10.73;;
10090;SDS011;5084;51.386;6.778;2022-11-20T06:36:31;14.20;;;12.10;;
10090;SDS011;5084;51.386;6.778;2022-11-20T06:38:57;14.23;;;10.67;;
10090;SDS011;5084;51.386;6.778;2022-11-20T06:41:23;13.60;;;11.20;;
10090;SDS011;5084;51.386;6.778;2022-11-20T06:43:50;13.40;;;10.83;;
10090;SDS011;5084;51.386;6.778;2022-11-20T06:46:16;14.50;;;11.67;;
10090;SDS011;5084;51.386;6.778;2022-11-20T06:48:43;15.20;;;11.47;;
10090;SDS011;5084;51.386;6.778;2022-11-20T06:51:09;14.20;;;11.07;;
10090;SDS011;5084;51.386;6.778;2022-11-20T06:53:35;12.37;;;10.40;;
10090;SDS011;5084;51.386;6.778;2022-11-20T06:56:02;14.83;;;11.33;;
10090;SDS011;5084;51.386;6.778;2022-11-20T06:58:29;12.90;;;10.93;;
10090;SDS011;5084;51.386;6.778;2022-11-20T07:01:03;14.30;;;11.47;;
10090;SDS011;5084;51.386;6.778;2022-11-20T07:03:29;14.70;;;12.20;;
10090;SDS011;5084;51.386;6.778;2022-11-20T07:05:55;15.70;;;11.73;;
10090;SDS011;5084;51.386;6.778;2022-11-20T07:08:21;15.13;;;11.33;;
10090;SDS011;5084;51.386;6.778;2022-11-20T07:10:47;14.47;;;11.30;;
10090;SDS011;5084;51.386;6.778;2022-11-20T07:13:14;13.20;;;11.30;;
10090;SDS011;5084;51.386;6.778;2022-11-20T07:15:40;13.57;;;11.73;;
10090;SDS011;5084;51.386;6.778;2022-11-20T07:18:06;17.35;;;14.00;;
10090;SDS011;5084;51.386;6.778;2022-11-20T07:20:32;17.97;;;12.33;;
10090;SDS011;5084;51.386;6.778;2022-11-20T07:22:58;15.50;;;12.07;;
10090;SDS011;5084;51.386;6.778;2022-11-20T07:25:24;15.83;;;12.37;;
10090;SDS011;5084;51.386;6.778;2022-11-20T07:27:51;16.87;;;13.00;;
10090;SDS011;5084;51.386;6.778;2022-11-20T07:30:17;18.13;;;12.90;;
10090;SDS011;5084;51.386;6.778;2022-11-20T07:32:53;14.43;;;12.10;;
10090;SDS011;5084;51.386;6.778;2022-11-20T07:35:19;14.50;;;11.93;;
10090;SDS011;5084;51.386;6.778;2022-11-20T07:37:45;15.50;;;13.07;;
10090;SDS011;5084;51.386;6.778;2022-11-20T07:40:12;14.03;;;11.37;;
10090;SDS011;5084;51.386;6.778;2022-11-20T07:42:39;14.73;;;12.33;;
10090;SDS011;5084;51.386;6.778;2022-11-20T07:45:05;14.03;;;12.40;;
10090;SDS011;5084;51.386;6.778;2022-11-20T07:47:35;17.13;;;11.70;;
10090;SDS011;5084;51.386;6.778;2022-11-20T07:50:01;13.13;;;11.67;;
10090;SDS011;5084;51.386;6.778;2022-11-20T07:52:27;16.03;;;12.33;;
10090;SDS011;5084;51.386;6.778;2022-11-20T07:54:54;14.17;;;12.13;;
10090;SDS011;5084;51.386;6.778;2022-11-20T07:57:20;16.17;;;12.53;;
10090;SDS011;5084;51.386;6.778;2022-11-20T07:59:46;15.47;;;11.90;;
10090;SDS011;5084;51.386;6.778;2022-11-20T08:02:12;14.47;;;12.03;;
10090;SDS011;5084;51.386;6.778;2022-11-20T08:04:38;13.53;;;11.50;;
10090;SDS011;5084;51.386;6.778;2022-11-20T08:07:04;14.17;;;11.40;;
10090;SDS011;5084;51.386;6.778;2022-11-20T08:09:30;14.07;;;12.03;;
10090;SDS011;5084;51.386;6.778;2022-11-20T08:11:57;13.67;;;11.63;;
10090;SDS011;5084;51.386;6.778;2022-11-20T08:14:42;16.13;;;11.83;;
10090;SDS011;5084;51.386;6.778;2022-11-20T08:17:08;14.27;;;11.53;;
10090;SDS011;5084;51.386;6.778;2022-11-20T08:19:34;16.57;;;12.33;;
10090;SDS011;5084;51.386;6.778;2022-11-20T08:22:01;14.50;;;11.53;;
10090;SDS011;5084;51.386;6.778;2022-11-20T08:24:27;15.63;;;12.83;;
10090;SDS011;5084;51.386;6.778;2022-11-20T08:26:53;14.87;;;11.40;;
10090;SDS011;5084;51.386;6.778;2022-11-20T08:29:19;12.83;;;10.70;;
10090;SDS011;5084;51.386;6.778;2022-11-20T08:31:45;13.40;;;11.37;;
10090;SDS011;5084;51.386;6.778;2022-11-20T08:34:11;13.23;;;10.93;;
10090;SDS011;5084;51.386;6.778;2022-11-20T08:36:37;14.47;;;11.70;;
10090;SDS011;5084;51.386;6.778;2022-11-20T08:39:03;17.67;;;11.00;;
10090;SDS011;5084;51.386;6.778;2022-11-20T08:41:29;13.53;;;11.57;;
10090;SDS011;5084;51.386;6.778;2022-11-20T08:44:05;13.67;;;11.97;;
10090;SDS011;5084;51.386;6.778;2022-11-20T08:46:33;13.80;;;11.27;;
10090;SDS011;5084;51.386;6.778;2022-11-20T08:49:00;13.77;;;12.23;;
10090;SDS011;5084;51.386;6.778;2022-11-20T08:51:26;12.93;;;10.80;;
10090;SDS011;5084;51.386;6.778;2022-11-20T08:53:52;13.07;;;10.70;;
10090;SDS011;5084;51.386;6.778;2022-11-20T08:56:18;15.10;;;11.90;;
10090;SDS011;5084;51.386;6.778;2022-11-20T08:58:44;13.17;;;10.90;;
10090;SDS011;5084;51.386;6.778;2022-11-20T09:01:10;12.73;;;10.40;;
10090;SDS011;5084;51.386;6.778;2022-11-20T09:03:37;13.90;;;12.00;;
10090;SDS011;5084;51.386;6.778;2022-11-20T09:06:04;14.80;;;10.87;;
10090;SDS011;5084;51.386;6.778;2022-11-20T09:08:31;12.73;;;10.33;;
10090;SDS011;5084;51.386;6.778;2022-11-20T09:10:57;15.13;;;11.43;;
10090;SDS011;5084;51.386;6.778;2022-11-20T09:13:24;12.80;;;10.50;;
10090;SDS011;5084;51.386;6.778;2022-11-20T09:16:00;12.67;;;10.93;;
10090;SDS011;5084;51.386;6.778;2022-11-20T09:18:27;13.20;;;10.73;;
10090;SDS011;5084;51.386;6.778;2022-11-20T09:21:00;13.93;;;11.20;;
10090;SDS011;5084;51.386;6.778;2022-11-20T09:23:26;13.13;;;11.07;;
10090;SDS011;5084;51.386;6.778;2022-11-20T09:25:53;14.43;;;11.47;;
10090;SDS011;5084;51.386;6.778;2022-11-20T09:28:20;12.90;;;10.27;;
10090;SDS011;5084;51.386;6.778;2022-11-20T09:30:47;12.53;;;10.10;;
10090;SDS011;5084;51.386;6.778;2022-11-20T09:33:13;14.57;;;11.27;;
10090;SDS011;5084;51.386;6.778;2022-11-20T09:35:39;13.80;;;10.70;;
10090;SDS011;5084;51.386;6.778;2022-11-20T09:38:05;13.10;;;10.63;;
10090;SDS011;5084;51.386;6.778;2022-11-20T09:40:32;14.10;;;11.00;;
10090;SDS011;5084;51.386;6.778;2022-11-20T09:42:59;12.57;;;10.43;;
10090;SDS011;5084;51.386;6.778;2022-11-20T09:48:14;14.37;;;11.17;;
10090;SDS011;5084;51.386;6.778;2022-11-20T09:53:30;12.13;;;10.73;;
10090;SDS011;5084;51.386;6.778;2022-11-20T09:56:01;14.13;;;10.57;;
10090;SDS011;5084;51.386;6.778;2022-11-20T09:58:40;11.83;;;9.87;;
10090;SDS011;5084;51.386;6.778;2022-11-20T10:01:17;13.40;;;10.73;;
10090;SDS011;5084;51.386;6.778;2022-11-20T10:03:45;12.33;;;10.33;;
10090;SDS011;5084;51.386;6.778;2022-11-20T10:06:15;12.37;;;10.43;;
10090;SDS011;5084;51.386;6.778;2022-11-20T10:08:55;12.90;;;9.97;;
10090;SDS011;5084;51.386;6.778;2022-11-20T10:11:35;12.50;;;10.23;;
10090;SDS011;5084;51.386;6.778;2022-11-20T10:19:38;12.53;;;9.97;;
10090;SDS011;5084;51.386;6.778;2022-11-20T10:25:37;12.70;;;10.10;;
10090;SDS011;5084;51.386;6.778;2022-11-20T10:27:44;11.70;;;9.97;;
10090;SDS011;5084;51.386;6.778;2022-11-20T10:30:15;11.07;;;9.83;;
10090;SDS011;5084;51.386;6.778;2022-11-20T10:32:46;13.77;;;10.67;;
10090;SDS011;5084;51.386;6.778;2022-11-20T10:35:18;12.93;;;10.17;;
10090;SDS011;5084;51.386;6.778;2022-11-20T10:37:47;14.40;;;10.73;;
10090;SDS011;5084;51.386;6.778;2022-11-20T10:40:20;13.30;;;10.37;;
10090;SDS011;5084;51.386;6.778;2022-11-20T10:42:48;13.20;;;10.67;;
10090;SDS011;5084;51.386;6.778;2022-11-20T10:47:48;12.80;;;10.00;;
10090;SDS011;5084;51.386;6.778;2022-11-20T10:50:15;13.43;;;10.30;;
10090;SDS011;5084;51.386;6.778;2022-11-20T10:57:51;12.67;;;10.90;;
10090;SDS011;5084;51.386;6.778;2022-11-20T11:00:19;12.63;;;10.20;;
10090;SDS011;5084;51.386;6.778;2022-11-20T11:02:52;13.03;;;10.40;;
10090;SDS011;5084;51.386;6.778;2022-11-20T11:07:50;11.70;;;9.57;;
10090;SDS011;5084;51.386;6.778;2022-11-20T11:10:18;11.73;;;9.80;;
10090;SDS011;5084;51.386;6.778;2022-11-20T11:12:45;12.40;;;10.23;;
10090;SDS011;5084;51.386;6.778;2022-11-20T11:15:25;11.50;;;9.80;;
10090;SDS011;5084;51.386;6.778;2022-11-20T11:17:51;11.53;;;9.73;;
10090;SDS011;5084;51.386;6.778;2022-11-20T11:20:19;14.40;;;11.37;;
10090;SDS011;5084;51.386;6.778;2022-11-20T11:22:47;14.50;;;10.73;;
10090;SDS011;5084;51.386;6.778;2022-11-20T11:25:21;11.77;;;9.47;;
10090;SDS011;5084;51.386;6.778;2022-11-20T11:27:47;11.80;;;10.07;;
10090;SDS011;5084;51.386;6.778;2022-11-20T11:30:14;14.90;;;10.23;;
10090;SDS011;5084;51.386;6.778;2022-11-20T11:32:41;11.03;;;9.37;;
10090;SDS011;5084;51.386;6.778;2022-11-20T11:35:18;12.47;;;9.93;;
10090;SDS011;5084;51.386;6.778;2022-11-20T11:37:44;13.53;;;10.33;;
10090;SDS011;5084;51.386;6.778;2022-11-20T11:40:12;12.63;;;9.97;;
10090;SDS011;5084;51.386;6.778;2022-11-20T11:42:46;12.87;;;9.80;;
10090;SDS011;5084;51.386;6.778;2022-11-20T11:45:16;13.30;;;9.93;;
10090;SDS011;5084;51.386;6.778;2022-11-20T11:47:48;14.07;;;10.30;;
10090;SDS011;5084;51.386;6.778;2022-11-20T11:50:26;14.90;;;10.23;;
10090;SDS011;5084;51.386;6.778;2022-11-20T11:52:56;13.70;;;10.97;;
10090;SDS011;5084;51.386;6.778;2022-11-20T11:55:29;11.43;;;10.13;;
10090;SDS011;5084;51.386;6.778;2022-11-20T12:00:44;12.83;;;9.97;;
10090;SDS011;5084;51.386;6.778;2022-11-20T12:03:13;12.43;;;9.87;;
10090;SDS011;5084;51.386;6.778;2022-11-20T12:05:44;13.13;;;9.83;;
10090;SDS011;5084;51.386;6.778;2022-11-20T12:08:17;12.37;;;9.27;;
10090;SDS011;5084;51.386;6.778;2022-11-20T12:10:48;14.10;;;11.10;;
10090;SDS011;5084;51.386;6.778;2022-11-20T12:13:26;14.23;;;11.23;;
10090;SDS011;5084;51.386;6.778;2022-11-20T12:15:54;12.93;;;10.70;;
10090;SDS011;5084;51.386;6.778;2022-11-20T12:18:20;11.97;;;9.57;;
10090;SDS011;5084;51.386;6.778;2022-11-20T12:23:44;13.37;;;10.50;;
10090;SDS011;5084;51.386;6.778;2022-11-20T12:28:56;12.23;;;10.00;;
10090;SDS011;5084;51.386;6.778;2022-11-20T12:34:01;15.40;;;10.90;;
10090;SDS011;5084;51.386;6.778;2022-11-20T12:36:32;13.37;;;10.37;;
10090;SDS011;5084;51.386;6.778;2022-11-20T12:44:46;13.53;;;9.77;;
10090;SDS011;5084;51.386;6.778;2022-11-20T12:50:17;12.60;;;9.83;;
10090;SDS011;5084;51.386;6.778;2022-11-20T12:52:47;13.67;;;10.70;;
10090;SDS011;5084;51.386;6.778;2022-11-20T12:56:23;14.80;;;10.77;;
10090;SDS011;5084;51.386;6.778;2022-11-20T13:01:09;12.73;;;10.27;;
10090;SDS011;5084;51.386;6.778;2022-11-20T13:03:58;12.80;;;10.00;;
10090;SDS011;5084;51.386;6.778;2022-11-20T13:06:26;14.17;;;11.13;;
10090;SDS011;5084;51.386;6.778;2022-11-20T13:08:53;12.90;;;10.07;;
10090;SDS011;5084;51.386;6.778;2022-11-20T13:11:28;14.30;;;10.87;;
10090;SDS011;5084;51.386;6.778;2022-11-20T13:16:36;13.37;;;10.43;;
10090;SDS011;5084;51.386;6.778;2022-11-20T13:19:03;14.27;;;11.10;;
10090;SDS011;5084;51.386;6.778;2022-11-20T13:21:37;11.97;;;9.67;;
10090;SDS011;5084;51.386;6.778;2022-11-20T13:24:23;14.47;;;10.57;;
10090;SDS011;5084;51.386;6.778;2022-11-20T13:29:29;13.23;;;10.40;;
10090;SDS011;5084;51.386;6.778;2022-11-20T13:32:02;13.10;;;10.47;;
10090;SDS011;5084;51.386;6.778;2022-11-20T13:34:31;15.70;;;12.03;;
10090;SDS011;5084;51.386;6.778;2022-11-20T13:36:57;13.07;;;10.23;;
10090;SDS011;5084;51.386;6.778;2022-11-20T13:41:55;13.70;;;10.90;;
10090;SDS011;5084;51.386;6.778;2022-11-20T13:44:38;13.97;;;11.27;;
10090;SDS011;5084;51.386;6.778;2022-11-20T13:47:17;14.47;;;11.00;;
10090;SDS011;5084;51.386;6.778;2022-11-20T13:49:45;14.33;;;10.80;;
10090;SDS011;5084;51.386;6.778;2022-11-20T13:52:28;13.70;;;10.47;;
10090;SDS011;5084;51.386;6.778;2022-11-20T13:57:40;15.30;;;10.80;;
10090;SDS011;5084;51.386;6.778;2022-11-20T14:00:19;15.10;;;10.67;;
10090;SDS011;5084;51.386;6.778;2022-11-20T14:02:49;17.17;;;11.20;;
10090;SDS011;5084;51.386;6.778;2022-11-20T14:05:22;15.70;;;11.43;;
10090;SDS011;5084;51.386;6.778;2022-11-20T14:07:49;16.17;;;12.20;;
10090;SDS011;5084;51.386;6.778;2022-11-20T14:10:26;14.50;;;11.63;;
10090;SDS011;5084;51.386;6.778;2022-11-20T14:12:52;14.87;;;10.83;;
10090;SDS011;5084;51.386;6.778;2022-11-20T14:17:51;16.67;;;13.47;;
10090;SDS011;5084;51.386;6.778;2022-11-20T14:20:17;18.00;;;12.90;;
10090;SDS011;5084;51.386;6.778;2022-11-20T14:22:51;18.30;;;13.70;;
10090;SDS011;5084;51.386;6.778;2022-11-20T14:25:19;18.33;;;14.13;;
10090;SDS011;5084;51.386;6.778;2022-11-20T14:27:57;19.10;;;13.67;;
10090;SDS011;5084;51.386;6.778;2022-11-20T14:30:28;19.67;;;13.07;;
10090;SDS011;5084;51.386;6.778;2022-11-20T14:33:02;18.93;;;13.60;;
10090;SDS011;5084;51.386;6.778;2022-11-20T14:35:30;16.87;;;12.70;;
10090;SDS011;5084;51.386;6.778;2022-11-20T14:37:56;19.53;;;14.33;;
10090;SDS011;5084;51.386;6.778;2022-11-20T14:42:49;22.53;;;14.33;;
10090;SDS011;5084;51.386;6.778;2022-11-20T14:45:15;19.00;;;14.20;;
10090;SDS011;5084;51.386;6.778;2022-11-20T14:47:42;16.50;;;12.93;;
10090;SDS011;5084;51.386;6.778;2022-11-20T14:50:19;19.93;;;13.17;;
10090;SDS011;5084;51.386;6.778;2022-11-20T14:52:53;20.93;;;14.40;;
10090;SDS011;5084;51.386;6.778;2022-11-20T14:55:31;21.73;;;14.00;;
10090;SDS011;5084;51.386;6.778;2022-11-20T14:57:58;21.27;;;15.87;;
10090;SDS011;5084;51.386;6.778;2022-11-20T15:00:25;20.57;;;15.47;;
10090;SDS011;5084;51.386;6.778;2022-11-20T15:02:51;22.63;;;15.93;;
10090;SDS011;5084;51.386;6.778;2022-11-20T15:05:19;22.37;;;14.67;;
10090;SDS011;5084;51.386;6.778;2022-11-20T15:08:07;22.77;;;16.03;;
10090;SDS011;5084;51.386;6.778;2022-11-20T15:10:32;24.47;;;15.07;;
10090;SDS011;5084;51.386;6.778;2022-11-20T15:13:02;23.73;;;15.90;;
10090;SDS011;5084;51.386;6.778;2022-11-20T15:15:30;23.00;;;15.67;;
10090;SDS011;5084;51.386;6.778;2022-11-20T15:17:57;23.70;;;16.73;;
10090;SDS011;5084;51.386;6.778;2022-11-20T15:20:27;20.90;;;15.70;;
10090;SDS011;5084;51.386;6.778;2022-11-20T15:22:54;23.23;;;15.93;;
10090;SDS011;5084;51.386;6.778;2022-11-20T15:25:20;24.37;;;16.20;;
10090;SDS011;5084;51.386;6.778;2022-11-20T15:27:46;21.27;;;16.03;;
10090;SDS011;5084;51.386;6.778;2022-11-20T15:30:15;26.13;;;18.13;;
10090;SDS011;5084;51.386;6.778;2022-11-20T15:32:42;23.47;;;15.87;;
10090;SDS011;5084;51.386;6.778;2022-11-20T15:35:09;26.27;;;17.27;;
10090;SDS011;5084;51.386;6.778;2022-11-20T15:37:35;21.03;;;14.97;;
10090;SDS011;5084;51.386;6.778;2022-11-20T15:40:02;26.10;;;17.20;;
10090;SDS011;5084;51.386;6.778;2022-11-20T15:42:28;24.30;;;16.57;;
10090;SDS011;5084;51.386;6.778;2022-11-20T15:44:54;24.93;;;16.73;;
10090;SDS011;5084;51.386;6.778;2022-11-20T15:47:22;22.47;;;15.80;;
10090;SDS011;5084;51.386;6.778;2022-11-20T15:49:50;25.13;;;16.47;;
10090;SDS011;5084;51.386;6.778;2022-11-20T15:52:16;26.80;;;17.33;;
10090;SDS011;5084;51.386;6.778;2022-11-20T15:54:42;24.70;;;17.63;;
10090;SDS011;5084;51.386;6.778;2022-11-20T15:57:08;24.67;;;17.10;;
10090;SDS011;5084;51.386;6.778;2022-11-20T15:59:34;24.70;;;16.57;;